createdAt,value
2022-08-14T00:00:23.021Z,20.80
2022-08-14T00:02:55.651Z,20.40
2022-08-14T00:05:28.457Z,20.10
2022-08-14T00:07:59.699Z,19.80
2022-08-14T00:10:52.713Z,19.50
2022-08-14T00:13:24.500Z,19.20
2022-08-14T00:15:55.130Z,18.90
2022-08-14T00:19:06.642Z,18.60
2022-08-14T00:21:22.436Z,18.50
2022-08-14T00:24:02.308Z,18.20
2022-08-14T00:26:32.687Z,18.00
2022-08-14T00:29:03.018Z,17.80
2022-08-14T00:31:43.986Z,17.70
2022-08-14T00:34:37.090Z,17.60
2022-08-14T00:37:06.951Z,17.40
2022-08-14T00:39:40.513Z,17.30
2022-08-14T00:42:52.533Z,17.20
2022-08-14T00:45:03.739Z,17.00
2022-08-14T00:47:44.802Z,17.00
2022-08-14T00:50:23.976Z,16.90
2022-08-14T00:52:56.828Z,16.70
2022-08-14T00:55:30.486Z,16.80
2022-08-14T00:58:17.456Z,16.80
2022-08-14T01:00:52.378Z,16.80
2022-08-14T01:03:30.846Z,16.80
2022-08-14T01:06:07.327Z,16.70
2022-08-14T01:08:57.921Z,16.70
2022-08-14T01:11:36.237Z,16.60
2022-08-14T01:14:25.586Z,16.50
2022-08-14T01:16:57.786Z,16.50
2022-08-14T01:19:47.939Z,16.40
2022-08-14T01:22:20.545Z,16.30
2022-08-14T01:24:52.365Z,16.30
2022-08-14T01:27:27.395Z,16.30
2022-08-14T01:30:04.517Z,16.30
2022-08-14T01:32:42.839Z,16.40
2022-08-14T01:35:20.775Z,16.40
2022-08-14T01:38:06.805Z,16.50
2022-08-14T01:40:42.106Z,16.60
2022-08-14T01:43:22.141Z,16.50
2022-08-14T01:46:06.710Z,16.40
2022-08-14T01:48:37.991Z,16.30
2022-08-14T01:51:18.869Z,16.30
2022-08-14T01:53:55.777Z,16.20
2022-08-14T01:56:39.099Z,16.30
2022-08-14T01:59:18.392Z,16.30
2022-08-14T02:01:57.986Z,16.40
2022-08-14T02:04:54.573Z,16.50
2022-08-14T02:07:44.669Z,16.60
2022-08-14T02:10:16.282Z,16.50
2022-08-14T02:12:56.827Z,16.50
2022-08-14T02:15:28.084Z,16.50
2022-08-14T02:18:02.283Z,16.50
2022-08-14T02:20:35.882Z,16.50
2022-08-14T02:23:06.450Z,16.50
2022-08-14T02:25:40.462Z,16.40
2022-08-14T02:28:26.100Z,16.30
2022-08-14T02:31:01.880Z,16.20
2022-08-14T02:33:33.718Z,16.10
2022-08-14T02:37:05.062Z,16.10
2022-08-14T02:39:00.573Z,15.90
2022-08-14T02:41:36.758Z,15.90
2022-08-14T02:44:12.220Z,15.90
2022-08-14T02:46:45.541Z,16.00
2022-08-14T02:49:22.282Z,16.00
2022-08-14T02:51:56.462Z,15.90
2022-08-14T02:54:27.642Z,15.90
2022-08-14T02:57:15.251Z,15.80
2022-08-14T02:59:52.560Z,15.80
2022-08-14T03:02:33.385Z,15.80
2022-08-14T03:05:12.892Z,15.80
2022-08-14T03:07:43.248Z,15.80
2022-08-14T03:10:27.838Z,15.70
2022-08-14T03:13:05.382Z,15.70
2022-08-14T03:15:47.025Z,15.50
2022-08-14T03:18:18.506Z,15.50
2022-08-14T03:20:48.831Z,15.40
2022-08-14T03:23:19.661Z,15.20
2022-08-14T03:25:50.470Z,15.10
2022-08-14T03:28:29.589Z,15.00
2022-08-14T03:31:03.492Z,15.00
2022-08-14T03:33:37.496Z,14.90
2022-08-14T03:37:51.282Z,14.90
2022-08-14T03:39:12.303Z,14.90
2022-08-14T03:41:52.583Z,14.70
2022-08-14T03:45:19.169Z,14.50
2022-08-14T03:47:15.369Z,14.40
2022-08-14T03:49:50.231Z,14.30
2022-08-14T03:52:38.083Z,14.10
2022-08-14T03:55:13.987Z,14.00
2022-08-14T03:57:44.671Z,13.90
2022-08-14T04:00:43.317Z,13.80
2022-08-14T04:03:09.216Z,13.80
2022-08-14T04:05:42.796Z,13.60
2022-08-14T04:08:23.114Z,13.50
2022-08-14T04:11:02.074Z,13.40
2022-08-14T04:13:34.621Z,13.30
2022-08-14T04:18:22.599Z,13.10
2022-08-14T04:20:55.316Z,13.00
2022-08-14T04:23:32.756Z,13.10
2022-08-14T04:26:04.863Z,13.30
2022-08-14T04:29:08.975Z,13.40
2022-08-14T04:32:57.600Z,13.20
2022-08-14T04:34:27.369Z,13.20
2022-08-14T04:37:22.359Z,13.20
2022-08-14T04:40:15.072Z,13.20
2022-08-14T04:43:17.000Z,13.10
2022-08-14T04:45:51.219Z,13.00
2022-08-14T04:48:39.545Z,13.00
2022-08-14T04:51:17.853Z,12.90
2022-08-14T04:53:50.890Z,12.70
2022-08-14T04:56:30.456Z,12.70
2022-08-14T04:59:09.629Z,12.50
2022-08-14T05:01:45.154Z,12.40
2022-08-14T05:04:20.806Z,12.30
2022-08-14T05:06:55.191Z,12.20
2022-08-14T05:09:28.954Z,12.20
2022-08-14T05:13:10.932Z,12.20
2022-08-14T05:14:54.521Z,12.30
2022-08-14T05:17:32.198Z,12.30
2022-08-14T05:21:54.201Z,12.30
2022-08-14T05:23:11.172Z,12.20
2022-08-14T05:25:41.883Z,12.10
2022-08-14T05:28:16.258Z,12.10
2022-08-14T05:30:47.095Z,12.10
2022-08-14T05:33:19.188Z,12.40
2022-08-14T05:35:51.785Z,12.40
2022-08-14T05:38:31.163Z,12.30
2022-08-14T05:41:06.426Z,12.40
2022-08-14T05:43:41.519Z,12.40
2022-08-14T05:46:15.283Z,12.30
2022-08-14T05:48:45.846Z,12.30
2022-08-14T05:51:16.341Z,12.30
2022-08-14T05:54:01.857Z,12.30
2022-08-14T05:56:38.425Z,12.20
2022-08-14T05:59:09.076Z,12.10
2022-08-14T06:01:39.479Z,12.00
2022-08-14T06:04:09.673Z,11.90
2022-08-14T06:06:42.037Z,11.90
2022-08-14T06:09:14.865Z,11.80
2022-08-14T06:11:45.287Z,11.70
2022-08-14T06:14:24.099Z,11.60
2022-08-14T06:16:54.891Z,11.60
2022-08-14T06:19:25.078Z,11.60
2022-08-14T06:21:58.242Z,11.60
2022-08-14T06:24:34.737Z,11.60
2022-08-14T06:27:10.013Z,11.60
2022-08-14T06:29:41.883Z,11.60
2022-08-14T06:32:36.536Z,11.60
2022-08-14T06:35:12.596Z,11.70
2022-08-14T06:37:49.455Z,11.60
2022-08-14T06:40:26.226Z,11.60
2022-08-14T06:43:00.525Z,11.60
2022-08-14T06:45:34.653Z,11.60
2022-08-14T06:48:12.672Z,11.60
2022-08-14T06:50:43.045Z,11.60
2022-08-14T06:53:17.095Z,11.50
2022-08-14T06:55:58.500Z,11.50
2022-08-14T06:58:32.914Z,11.50
2022-08-14T07:01:26.927Z,11.40
2022-08-14T07:04:22.864Z,11.40
2022-08-14T07:06:59.415Z,11.50
2022-08-14T07:09:44.015Z,11.50
2022-08-14T07:12:54.653Z,11.40
2022-08-14T07:15:13.161Z,11.40
2022-08-14T07:17:52.086Z,11.60
2022-08-14T07:20:30.735Z,11.50
2022-08-14T07:23:07.718Z,11.50
2022-08-14T07:25:40.202Z,11.60
2022-08-14T07:28:20.531Z,11.60
2022-08-14T07:30:51.885Z,11.70
2022-08-14T07:33:29.114Z,11.70
2022-08-14T07:36:17.525Z,11.60
2022-08-14T07:38:54.747Z,11.50
2022-08-14T07:41:34.025Z,11.50
2022-08-14T07:44:32.706Z,11.40
2022-08-14T07:46:57.402Z,11.40
2022-08-14T07:49:29.670Z,11.30
2022-08-14T07:52:00.611Z,11.30
2022-08-14T07:54:33.763Z,11.30
2022-08-14T07:57:06.649Z,11.30
2022-08-14T07:59:47.125Z,11.20
2022-08-14T08:02:20.752Z,11.10
2022-08-14T08:04:59.334Z,11.00
2022-08-14T08:07:32.485Z,10.90
2022-08-14T08:10:46.851Z,11.00
2022-08-14T08:13:24.642Z,11.10
2022-08-14T08:16:01.261Z,11.20
2022-08-14T08:18:31.605Z,11.10
2022-08-14T08:21:06.493Z,11.00
2022-08-14T08:23:40.552Z,10.90
2022-08-14T08:26:21.524Z,10.80
2022-08-14T08:28:59.494Z,10.70
2022-08-14T08:31:34.892Z,10.60
2022-08-14T08:34:14.310Z,10.50
2022-08-14T08:36:48.802Z,10.50
2022-08-14T08:39:22.495Z,10.40
2022-08-14T08:41:54.022Z,10.50
2022-08-14T08:44:34.534Z,10.60
2022-08-14T08:47:08.446Z,10.70
2022-08-14T08:49:52.570Z,10.80
2022-08-14T08:52:31.720Z,10.80
2022-08-14T08:55:05.059Z,10.70
2022-08-14T08:57:38.349Z,10.50
2022-08-14T09:00:24.466Z,10.40
2022-08-14T09:03:00.058Z,10.30
2022-08-14T09:05:30.162Z,10.30
2022-08-14T09:08:30.134Z,10.30
2022-08-14T09:11:19.965Z,10.30
2022-08-14T09:13:53.502Z,10.30
2022-08-14T09:16:25.800Z,10.20
2022-08-14T09:18:58.506Z,10.20
2022-08-14T09:21:31.499Z,10.30
2022-08-14T09:24:28.647Z,10.30
2022-08-14T09:26:54.148Z,10.20
2022-08-14T09:29:24.486Z,10.20
2022-08-14T09:32:02.669Z,10.10
2022-08-14T09:34:59.171Z,10.00
2022-08-14T09:37:40.364Z,9.90
2022-08-14T09:40:20.570Z,10.00
2022-08-14T09:43:06.448Z,9.90
2022-08-14T09:45:53.497Z,9.90
2022-08-14T09:48:27.511Z,9.80
2022-08-14T09:54:17.944Z,9.60
2022-08-14T09:56:33.490Z,9.50
2022-08-14T09:59:15.987Z,9.50
2022-08-14T10:01:53.082Z,9.50
2022-08-14T10:04:36.682Z,9.50
2022-08-14T10:07:12.509Z,9.60
2022-08-14T10:10:00.172Z,9.60
2022-08-14T10:12:54.681Z,9.60
2022-08-14T10:15:27.835Z,9.60
2022-08-14T10:18:13.286Z,9.60
2022-08-14T10:20:55.886Z,9.70
2022-08-14T10:23:35.322Z,9.70
2022-08-14T10:26:08.634Z,9.80
2022-08-14T10:29:03.991Z,9.90
2022-08-14T10:31:44.466Z,10.00
2022-08-14T10:34:29.028Z,10.00
2022-08-14T10:37:14.170Z,9.90
2022-08-14T10:40:01.207Z,9.90
2022-08-14T10:42:38.830Z,10.00
2022-08-14T10:45:21.926Z,10.10
2022-08-14T10:48:07.993Z,10.20
2022-08-14T10:50:46.708Z,10.20
2022-08-14T10:53:17.311Z,10.30
2022-08-14T10:55:50.444Z,10.30
2022-08-14T10:58:34.202Z,10.40
2022-08-14T11:01:08.562Z,10.50
2022-08-14T11:03:56.053Z,10.60
2022-08-14T11:06:27.408Z,10.80
2022-08-14T11:08:57.705Z,11.10
2022-08-14T11:11:37.019Z,11.40
2022-08-14T11:14:09.776Z,11.60
2022-08-14T11:16:53.410Z,11.80
2022-08-14T11:19:25.924Z,11.90
2022-08-14T11:21:56.484Z,12.10
2022-08-14T11:24:54.304Z,12.20
2022-08-14T11:27:25.772Z,12.20
2022-08-14T11:30:48.934Z,12.40
2022-08-14T11:32:58.804Z,12.50
2022-08-14T11:35:44.272Z,12.70
2022-08-14T11:38:20.758Z,12.80
2022-08-14T11:40:52.585Z,12.90
2022-08-14T11:43:29.245Z,13.00
2022-08-14T11:46:03.556Z,13.10
2022-08-14T11:49:04.360Z,13.10
2022-08-14T11:51:36.220Z,13.10
2022-08-14T11:54:33.882Z,13.20
2022-08-14T11:57:06.255Z,13.30
2022-08-14T11:59:38.420Z,13.40
2022-08-14T12:03:01.600Z,13.60
2022-08-14T12:05:09.267Z,13.70
2022-08-14T12:07:49.909Z,13.90
2022-08-14T12:10:26.353Z,14.10
2022-08-14T12:12:57.813Z,14.20
2022-08-14T12:15:36.129Z,14.30
2022-08-14T12:18:07.114Z,14.40
2022-08-14T12:20:52.419Z,14.50
2022-08-14T12:23:25.556Z,14.60
2022-08-14T12:26:31.425Z,14.60
2022-08-14T12:29:09.287Z,14.70
2022-08-14T12:31:44.683Z,14.80
2022-08-14T12:34:20.452Z,14.90
2022-08-14T12:37:03.943Z,15.00
2022-08-14T12:39:39.402Z,15.10
2022-08-14T12:42:27.278Z,15.20
2022-08-14T12:45:03.645Z,15.30
2022-08-14T12:47:36.530Z,15.40
2022-08-14T12:50:07.569Z,15.50
2022-08-14T12:52:56.000Z,15.60
2022-08-14T12:56:17.533Z,15.70
2022-08-14T12:58:38.078Z,15.80
2022-08-14T13:01:23.452Z,16.00
2022-08-14T13:04:06.010Z,16.10
2022-08-14T13:06:37.351Z,16.20
2022-08-14T13:11:45.910Z,16.50
2022-08-14T13:14:18.653Z,16.70
2022-08-14T13:16:52.277Z,16.80
2022-08-14T13:19:29.033Z,17.00
2022-08-14T13:22:09.515Z,17.20
2022-08-14T13:24:41.784Z,17.30
2022-08-14T13:27:14.695Z,17.40
2022-08-14T13:29:47.159Z,17.50
2022-08-14T13:32:18.658Z,17.60
2022-08-14T13:34:52.647Z,17.70
2022-08-14T13:37:23.557Z,17.80
2022-08-14T13:39:57.382Z,17.90
2022-08-14T13:42:31.475Z,18.00
2022-08-14T13:45:03.741Z,18.20
2022-08-14T13:47:34.686Z,18.40
2022-08-14T13:50:10.426Z,18.50
2022-08-14T13:52:52.450Z,18.70
2022-08-14T13:55:25.647Z,18.90
2022-08-14T13:58:03.518Z,19.00
2022-08-14T14:00:51.754Z,19.10
2022-08-14T14:03:25.019Z,19.30
2022-08-14T14:05:57.011Z,19.50
2022-08-14T14:08:46.092Z,19.60
2022-08-14T14:11:20.670Z,19.60
2022-08-14T14:13:53.771Z,19.70
2022-08-14T14:16:30.265Z,19.80
2022-08-14T14:19:09.606Z,19.90
2022-08-14T14:21:41.951Z,19.90
2022-08-14T14:24:15.273Z,20.10
2022-08-14T14:26:50.658Z,20.20
2022-08-14T14:29:26.459Z,20.30
2022-08-14T14:31:59.849Z,20.40
2022-08-14T14:34:32.597Z,20.60
2022-08-14T14:37:05.102Z,20.70
2022-08-14T14:40:53.583Z,20.90
2022-08-14T14:42:32.265Z,21.00
2022-08-14T14:45:15.506Z,21.10
2022-08-14T14:47:47.328Z,21.20
2022-08-14T14:50:19.041Z,21.30
2022-08-14T14:52:50.414Z,21.30
2022-08-14T14:55:21.943Z,21.40
2022-08-14T14:57:55.042Z,21.60
2022-08-14T15:00:30.951Z,21.70
2022-08-14T15:03:01.493Z,21.90
2022-08-14T15:05:33.062Z,22.00
2022-08-14T15:08:03.228Z,22.20
2022-08-14T15:10:39.914Z,22.30
2022-08-14T15:13:10.495Z,22.50
2022-08-14T15:15:42.648Z,22.60
2022-08-14T15:18:36.870Z,22.80
2022-08-14T15:21:03.627Z,22.90
2022-08-14T15:23:44.697Z,23.00
2022-08-14T15:26:23.684Z,23.10
2022-08-14T15:29:05.922Z,23.20
2022-08-14T15:31:38.833Z,23.30
2022-08-14T15:34:43.217Z,23.50
2022-08-14T15:37:06.658Z,23.60
2022-08-14T15:39:44.305Z,23.80
2022-08-14T15:42:16.532Z,23.90
2022-08-14T15:44:57.331Z,24.00
2022-08-14T15:47:35.292Z,24.20
2022-08-14T15:50:13.550Z,24.30
2022-08-14T15:52:44.817Z,24.40
2022-08-14T15:55:16.757Z,24.40
2022-08-14T15:58:02.050Z,24.50
2022-08-14T16:00:52.873Z,24.70
2022-08-14T16:03:35.774Z,24.70
2022-08-14T16:06:11.051Z,24.80
2022-08-14T16:08:50.470Z,24.90
2022-08-14T16:11:32.846Z,25.10
2022-08-14T16:14:06.906Z,25.30
2022-08-14T16:16:51.025Z,25.30
2022-08-14T16:19:31.020Z,25.40
2022-08-14T16:22:57.367Z,25.40
2022-08-14T16:25:02.235Z,25.60
2022-08-14T16:27:47.956Z,25.70
2022-08-14T16:30:27.657Z,25.70
2022-08-14T16:32:59.498Z,25.90
2022-08-14T16:35:43.272Z,26.00
2022-08-14T16:38:46.458Z,26.10
2022-08-14T16:41:23.409Z,26.40
2022-08-14T16:43:58.933Z,26.60
2022-08-14T16:46:32.582Z,26.80
2022-08-14T16:49:03.562Z,27.10
2022-08-14T16:51:38.456Z,27.30
2022-08-14T16:54:20.884Z,27.50
2022-08-14T16:57:16.900Z,27.90
2022-08-14T16:59:52.708Z,28.50
2022-08-14T17:02:36.677Z,28.90
2022-08-14T17:05:23.320Z,29.20
2022-08-14T17:08:32.761Z,29.30
2022-08-14T17:11:11.899Z,29.50
2022-08-14T17:13:59.550Z,29.50
2022-08-14T17:16:37.467Z,29.60
2022-08-14T17:19:13.772Z,29.70
2022-08-14T17:21:47.050Z,29.90
2022-08-14T17:24:56.742Z,29.80
2022-08-14T17:27:18.302Z,29.70
2022-08-14T17:29:56.262Z,30.00
2022-08-14T17:32:55.959Z,30.40
2022-08-14T17:35:57.465Z,30.40
2022-08-14T17:38:38.559Z,30.20
2022-08-14T17:41:27.266Z,30.40
2022-08-14T17:44:19.860Z,30.60
2022-08-14T17:46:57.092Z,30.60
2022-08-14T17:49:32.257Z,30.90
2022-08-14T17:52:07.711Z,31.10
2022-08-14T17:54:52.601Z,31.10
2022-08-14T17:57:35.321Z,31.10
2022-08-14T18:00:18.345Z,30.90
2022-08-14T18:02:50.371Z,31.00
2022-08-14T18:05:22.845Z,31.10
2022-08-14T18:08:31.729Z,31.20
2022-08-14T18:10:54.940Z,30.60
2022-08-14T18:13:52.028Z,30.40
2022-08-14T18:16:22.802Z,30.40
2022-08-14T18:18:54.027Z,30.60
2022-08-14T18:21:56.004Z,30.20
2022-08-14T18:24:30.087Z,29.60
2022-08-14T18:27:09.285Z,29.00
2022-08-14T18:29:55.534Z,28.30
2022-08-14T18:32:54.928Z,28.90
2022-08-14T18:35:45.423Z,29.40
2022-08-14T18:38:25.768Z,29.80
2022-08-14T18:41:36.802Z,29.70
2022-08-14T18:44:10.672Z,30.20
2022-08-14T18:47:18.118Z,30.70
2022-08-14T18:50:26.540Z,31.20
2022-08-14T18:53:11.002Z,31.40
2022-08-14T18:55:54.112Z,31.50
2022-08-14T18:58:34.095Z,31.90
2022-08-14T19:01:06.527Z,32.10
2022-08-14T19:04:01.244Z,32.10
2022-08-14T19:06:56.500Z,32.20
2022-08-14T19:09:58.199Z,31.60
2022-08-14T19:13:12.132Z,31.60
2022-08-14T19:15:56.144Z,31.80
2022-08-14T19:18:29.695Z,31.50
2022-08-14T19:21:01.676Z,31.50
2022-08-14T19:23:42.315Z,31.40
2022-08-14T19:26:36.224Z,31.50
2022-08-14T19:29:26.208Z,31.70
2022-08-14T19:32:28.916Z,31.70
2022-08-14T19:35:02.413Z,31.60
2022-08-14T19:37:52.038Z,31.40
2022-08-14T19:40:36.261Z,31.60
2022-08-14T19:43:09.038Z,31.10
2022-08-14T19:45:40.617Z,31.00
2022-08-14T19:48:15.724Z,30.70
2022-08-14T19:50:48.240Z,30.90
2022-08-14T19:53:19.481Z,30.90
2022-08-14T19:56:02.786Z,31.30
2022-08-14T19:58:55.010Z,31.40
2022-08-14T20:01:36.697Z,31.40
2022-08-14T20:04:46.726Z,31.40
2022-08-14T20:07:04.379Z,31.30
2022-08-14T20:11:06.403Z,31.60
2022-08-14T20:12:36.734Z,31.80
2022-08-14T20:15:47.172Z,31.50
2022-08-14T20:18:48.661Z,31.60
2022-08-14T20:21:16.598Z,31.40
2022-08-14T20:23:47.845Z,31.30
2022-08-14T20:26:31.232Z,31.50
2022-08-14T20:29:07.216Z,31.40
2022-08-14T20:31:38.751Z,31.40
2022-08-14T20:34:18.957Z,31.50
2022-08-14T20:37:10.016Z,31.40
2022-08-14T20:39:45.274Z,31.60
2022-08-14T20:42:43.662Z,31.60
2022-08-14T20:45:25.031Z,31.80
2022-08-14T20:48:01.993Z,31.70
2022-08-14T20:50:45.171Z,31.70
2022-08-14T20:53:32.439Z,31.80
2022-08-14T20:56:28.348Z,31.80
2022-08-14T20:58:55.476Z,31.90
2022-08-14T21:01:36.681Z,31.80
2022-08-14T21:04:22.246Z,31.60
2022-08-14T21:07:25.443Z,31.50
2022-08-14T21:10:04.717Z,31.40
2022-08-14T21:12:36.675Z,31.40
2022-08-14T21:15:10.104Z,31.40
2022-08-14T21:17:43.548Z,31.40
2022-08-14T21:20:25.260Z,31.50
2022-08-14T21:23:00.436Z,31.50
2022-08-14T21:25:32.260Z,31.30
2022-08-14T21:28:04.778Z,31.20
2022-08-14T21:30:51.485Z,30.80
2022-08-14T21:33:25.936Z,30.50
2022-08-14T21:35:59.220Z,30.30
2022-08-14T21:38:33.649Z,30.00
2022-08-14T21:41:42.677Z,30.10
2022-08-14T21:44:18.086Z,29.90
2022-08-14T21:46:54.109Z,29.70
2022-08-14T21:49:37.429Z,29.40
2022-08-14T21:52:52.048Z,29.10
2022-08-14T21:55:08.595Z,28.90
2022-08-14T21:58:46.196Z,28.70
2022-08-14T22:00:42.474Z,28.60
2022-08-14T22:03:17.790Z,28.80
2022-08-14T22:05:51.960Z,29.00
2022-08-14T22:08:26.795Z,29.10
2022-08-14T22:10:59.205Z,29.00
2022-08-14T22:13:32.560Z,29.00
2022-08-14T22:16:03.036Z,28.90
2022-08-14T22:18:34.238Z,28.90
2022-08-14T22:21:16.613Z,29.10
2022-08-14T22:23:47.405Z,29.10
2022-08-14T22:26:22.909Z,29.10
2022-08-14T22:29:00.924Z,29.00
2022-08-14T22:31:35.106Z,29.00
2022-08-14T22:34:10.421Z,29.10
2022-08-14T22:36:50.845Z,29.20
2022-08-14T22:40:17.104Z,29.20
2022-08-14T22:42:21.492Z,29.20
2022-08-14T22:44:56.730Z,29.10
2022-08-14T22:47:40.403Z,29.00
2022-08-14T22:50:29.441Z,28.80
2022-08-14T22:53:07.260Z,28.70
2022-08-14T22:55:40.734Z,28.50
2022-08-14T22:58:10.837Z,28.30
2022-08-14T23:00:47.985Z,28.30
2022-08-14T23:03:20.211Z,28.00
2022-08-14T23:05:52.596Z,27.80
2022-08-14T23:09:00.326Z,27.50
2022-08-14T23:11:16.015Z,27.30
2022-08-14T23:13:47.131Z,27.10
2022-08-14T23:16:20.140Z,26.90
2022-08-14T23:18:53.517Z,26.70
2022-08-14T23:21:28.820Z,26.50
2022-08-14T23:24:03.077Z,26.30
2022-08-14T23:26:48.443Z,26.00
2022-08-14T23:29:22.505Z,25.80
2022-08-14T23:31:53.166Z,25.50
2022-08-14T23:34:25.371Z,25.20
2022-08-14T23:37:03.937Z,25.00
2022-08-14T23:39:39.103Z,24.60
2022-08-14T23:42:17.991Z,24.20
2022-08-14T23:44:49.626Z,23.90
2022-08-14T23:47:26.373Z,23.50
2022-08-14T23:50:04.160Z,23.10
2022-08-14T23:53:04.225Z,22.60
2022-08-14T23:55:36.316Z,22.10
2022-08-14T23:58:29.131Z,21.70
